sensor_id;sensor_type;location;lat;lon;timestamp;P1;durP1;ratioP1;P2;durP2;ratioP2
21084;SDS011;34247;50.064;19.970;2023-02-28T00:01:14;8.75;;;3.97;;
21084;SDS011;34247;50.064;19.970;2023-02-28T00:02:21;6.28;;;4.63;;
21084;SDS011;34247;50.064;19.970;2023-02-28T00:03:46;4.25;;;3.40;;
21084;SDS011;34247;50.064;19.970;2023-02-28T00:04:56;5.60;;;3.88;;
21084;SDS011;34247;50.064;19.970;2023-02-28T00:06:20;8.23;;;3.95;;
21084;SDS011;34247;50.064;19.970;2023-02-28T00:07:41;3.42;;;2.85;;
21084;SDS011;34247;50.064;19.970;2023-02-28T00:09:14;3.97;;;3.38;;
21084;SDS011;34247;50.064;19.970;2023-02-28T00:10:31;6.22;;;3.83;;
21084;SDS011;34247;50.064;19.970;2023-02-28T00:11:47;9.57;;;4.25;;
21084;SDS011;34247;50.064;19.970;2023-02-28T00:12:51;6.38;;;3.40;;
21084;SDS011;34247;50.064;19.970;2023-02-28T00:14:01;3.33;;;2.85;;
21084;SDS011;34247;50.064;19.970;2023-02-28T00:15:12;4.15;;;3.75;;
21084;SDS011;34247;50.064;19.970;2023-02-28T00:16:29;5.32;;;3.80;;
21084;SDS011;34247;50.064;19.970;2023-02-28T00:17:36;4.57;;;3.45;;
21084;SDS011;34247;50.064;19.970;2023-02-28T00:18:43;2.95;;;2.75;;
21084;SDS011;34247;50.064;19.970;2023-02-28T00:20:01;3.53;;;3.22;;
21084;SDS011;34247;50.064;19.970;2023-02-28T00:21:19;6.55;;;3.55;;
21084;SDS011;34247;50.064;19.970;2023-02-28T00:22:57;3.88;;;3.13;;
21084;SDS011;34247;50.064;19.970;2023-02-28T00:24:11;3.97;;;3.30;;
21084;SDS011;34247;50.064;19.970;2023-02-28T00:25:24;5.63;;;3.35;;
21084;SDS011;34247;50.064;19.970;2023-02-28T00:26:43;3.15;;;2.85;;
21084;SDS011;34247;50.064;19.970;2023-02-28T00:27:47;6.50;;;3.17;;
21084;SDS011;34247;50.064;19.970;2023-02-28T00:28:55;4.18;;;2.80;;
21084;SDS011;34247;50.064;19.970;2023-02-28T00:30:01;4.13;;;2.60;;
21084;SDS011;34247;50.064;19.970;2023-02-28T00:31:20;4.15;;;3.70;;
21084;SDS011;34247;50.064;19.970;2023-02-28T00:32:24;3.00;;;2.80;;
21084;SDS011;34247;50.064;19.970;2023-02-28T00:33:28;5.90;;;2.88;;
21084;SDS011;34247;50.064;19.970;2023-02-28T00:34:32;5.00;;;2.53;;
21084;SDS011;34247;50.064;19.970;2023-02-28T00:35:40;10.98;;;3.63;;
21084;SDS011;34247;50.064;19.970;2023-02-28T00:36:44;5.18;;;3.47;;
21084;SDS011;34247;50.064;19.970;2023-02-28T00:37:51;3.63;;;3.10;;
21084;SDS011;34247;50.064;19.970;2023-02-28T00:38:56;4.07;;;2.80;;
21084;SDS011;34247;50.064;19.970;2023-02-28T00:40:00;2.47;;;2.28;;
21084;SDS011;34247;50.064;19.970;2023-02-28T00:41:09;3.28;;;2.50;;
21084;SDS011;34247;50.064;19.970;2023-02-28T00:42:13;7.03;;;3.67;;
21084;SDS011;34247;50.064;19.970;2023-02-28T00:43:18;3.83;;;3.22;;
21084;SDS011;34247;50.064;19.970;2023-02-28T00:44:22;2.90;;;2.70;;
21084;SDS011;34247;50.064;19.970;2023-02-28T00:45:28;7.45;;;3.40;;
21084;SDS011;34247;50.064;19.970;2023-02-28T00:46:32;5.35;;;2.80;;
21084;SDS011;34247;50.064;19.970;2023-02-28T00:47:36;4.13;;;3.50;;
21084;SDS011;34247;50.064;19.970;2023-02-28T00:48:41;4.10;;;2.92;;
21084;SDS011;34247;50.064;19.970;2023-02-28T00:49:45;3.42;;;2.83;;
21084;SDS011;34247;50.064;19.970;2023-02-28T00:50:49;2.65;;;2.45;;
21084;SDS011;34247;50.064;19.970;2023-02-28T00:51:55;5.18;;;3.10;;
21084;SDS011;34247;50.064;19.970;2023-02-28T00:53:03;2.97;;;2.78;;
21084;SDS011;34247;50.064;19.970;2023-02-28T00:54:20;4.78;;;2.80;;
21084;SDS011;34247;50.064;19.970;2023-02-28T00:55:27;12.30;;;3.35;;
21084;SDS011;34247;50.064;19.970;2023-02-28T00:56:33;7.80;;;3.38;;
21084;SDS011;34247;50.064;19.970;2023-02-28T00:57:37;4.07;;;2.83;;
21084;SDS011;34247;50.064;19.970;2023-02-28T00:58:45;4.47;;;3.42;;
21084;SDS011;34247;50.064;19.970;2023-02-28T01:00:03;4.22;;;2.80;;
21084;SDS011;34247;50.064;19.970;2023-02-28T01:01:16;4.45;;;3.03;;
21084;SDS011;34247;50.064;19.970;2023-02-28T01:02:29;8.13;;;3.35;;
21084;SDS011;34247;50.064;19.970;2023-02-28T01:03:35;4.75;;;3.28;;
21084;SDS011;34247;50.064;19.970;2023-02-28T01:04:39;6.30;;;3.85;;
21084;SDS011;34247;50.064;19.970;2023-02-28T01:05:43;2.25;;;2.15;;
21084;SDS011;34247;50.064;19.970;2023-02-28T01:06:47;4.38;;;3.72;;
21084;SDS011;34247;50.064;19.970;2023-02-28T01:07:50;3.78;;;3.08;;
21084;SDS011;34247;50.064;19.970;2023-02-28T01:08:55;5.07;;;3.22;;
21084;SDS011;34247;50.064;19.970;2023-02-28T01:09:58;3.33;;;2.88;;
21084;SDS011;34247;50.064;19.970;2023-02-28T01:11:10;3.30;;;2.83;;
21084;SDS011;34247;50.064;19.970;2023-02-28T01:12:17;6.72;;;4.43;;
21084;SDS011;34247;50.064;19.970;2023-02-28T01:13:22;4.28;;;2.97;;
21084;SDS011;34247;50.064;19.970;2023-02-28T01:14:26;3.95;;;3.13;;
21084;SDS011;34247;50.064;19.970;2023-02-28T01:15:30;3.10;;;2.88;;
21084;SDS011;34247;50.064;19.970;2023-02-28T01:16:34;5.82;;;2.85;;
21084;SDS011;34247;50.064;19.970;2023-02-28T01:17:38;4.32;;;3.58;;
21084;SDS011;34247;50.064;19.970;2023-02-28T01:18:42;6.70;;;3.25;;
21084;SDS011;34247;50.064;19.970;2023-02-28T01:19:46;3.58;;;3.22;;
21084;SDS011;34247;50.064;19.970;2023-02-28T01:20:50;12.02;;;2.80;;
21084;SDS011;34247;50.064;19.970;2023-02-28T01:22:00;6.60;;;2.85;;
21084;SDS011;34247;50.064;19.970;2023-02-28T01:23:14;6.65;;;2.45;;
21084;SDS011;34247;50.064;19.970;2023-02-28T01:24:18;5.45;;;4.10;;
21084;SDS011;34247;50.064;19.970;2023-02-28T01:25:22;5.22;;;3.63;;
21084;SDS011;34247;50.064;19.970;2023-02-28T01:26:27;5.13;;;3.22;;
21084;SDS011;34247;50.064;19.970;2023-02-28T01:27:31;7.10;;;2.97;;
21084;SDS011;34247;50.064;19.970;2023-02-28T01:28:36;8.68;;;4.10;;
21084;SDS011;34247;50.064;19.970;2023-02-28T01:29:40;3.67;;;3.28;;
21084;SDS011;34247;50.064;19.970;2023-02-28T01:30:47;9.57;;;3.40;;
21084;SDS011;34247;50.064;19.970;2023-02-28T01:31:53;3.33;;;3.03;;
21084;SDS011;34247;50.064;19.970;2023-02-28T01:32:57;4.72;;;2.97;;
21084;SDS011;34247;50.064;19.970;2023-02-28T01:34:02;6.38;;;3.03;;
21084;SDS011;34247;50.064;19.970;2023-02-28T01:35:10;6.95;;;3.65;;
21084;SDS011;34247;50.064;19.970;2023-02-28T01:36:19;3.25;;;3.05;;
21084;SDS011;34247;50.064;19.970;2023-02-28T01:37:31;4.70;;;3.83;;
21084;SDS011;34247;50.064;19.970;2023-02-28T01:38:36;3.63;;;3.35;;
21084;SDS011;34247;50.064;19.970;2023-02-28T01:39:39;3.58;;;3.25;;
21084;SDS011;34247;50.064;19.970;2023-02-28T01:40:47;3.28;;;3.00;;
21084;SDS011;34247;50.064;19.970;2023-02-28T01:41:52;3.17;;;2.83;;
21084;SDS011;34247;50.064;19.970;2023-02-28T01:42:56;4.35;;;3.35;;
21084;SDS011;34247;50.064;19.970;2023-02-28T01:44:07;3.10;;;2.80;;
21084;SDS011;34247;50.064;19.970;2023-02-28T01:46:01;3.35;;;3.05;;
21084;SDS011;34247;50.064;19.970;2023-02-28T01:47:07;4.93;;;4.45;;
21084;SDS011;34247;50.064;19.970;2023-02-28T01:48:16;9.25;;;3.45;;
21084;SDS011;34247;50.064;19.970;2023-02-28T01:49:22;9.93;;;4.05;;
21084;SDS011;34247;50.064;19.970;2023-02-28T01:50:27;3.50;;;2.85;;
21084;SDS011;34247;50.064;19.970;2023-02-28T01:51:41;3.10;;;2.85;;
21084;SDS011;34247;50.064;19.970;2023-02-28T01:52:54;4.07;;;2.60;;
21084;SDS011;34247;50.064;19.970;2023-02-28T01:54:07;5.15;;;3.00;;
21084;SDS011;34247;50.064;19.970;2023-02-28T01:55:18;3.47;;;3.00;;
21084;SDS011;34247;50.064;19.970;2023-02-28T01:56:28;3.20;;;3.00;;
21084;SDS011;34247;50.064;19.970;2023-02-28T01:57:40;8.00;;;3.78;;
21084;SDS011;34247;50.064;19.970;2023-02-28T01:58:52;4.43;;;4.03;;
21084;SDS011;34247;50.064;19.970;2023-02-28T02:00:01;5.18;;;3.55;;
21084;SDS011;34247;50.064;19.970;2023-02-28T02:01:21;7.22;;;3.58;;
21084;SDS011;34247;50.064;19.970;2023-02-28T02:02:29;7.20;;;4.55;;
21084;SDS011;34247;50.064;19.970;2023-02-28T02:03:34;8.18;;;4.75;;
21084;SDS011;34247;50.064;19.970;2023-02-28T02:04:41;6.25;;;3.83;;
21084;SDS011;34247;50.064;19.970;2023-02-28T02:06:01;4.63;;;3.58;;
21084;SDS011;34247;50.064;19.970;2023-02-28T02:07:12;4.93;;;3.22;;
21084;SDS011;34247;50.064;19.970;2023-02-28T02:08:24;10.63;;;3.55;;
21084;SDS011;34247;50.064;19.970;2023-02-28T02:09:32;4.65;;;3.13;;
21084;SDS011;34247;50.064;19.970;2023-02-28T02:10:38;5.00;;;3.35;;
21084;SDS011;34247;50.064;19.970;2023-02-28T02:11:47;11.95;;;3.70;;
21084;SDS011;34247;50.064;19.970;2023-02-28T02:17:44;12.80;;;3.78;;
21084;SDS011;34247;50.064;19.970;2023-02-28T02:19:06;4.32;;;3.58;;
21084;SDS011;34247;50.064;19.970;2023-02-28T02:25:39;7.95;;;3.97;;
21084;SDS011;34247;50.064;19.970;2023-02-28T02:27:05;4.13;;;3.53;;
21084;SDS011;34247;50.064;19.970;2023-02-28T02:31:25;5.28;;;3.80;;
21084;SDS011;34247;50.064;19.970;2023-02-28T02:34:25;3.90;;;3.47;;
21084;SDS011;34247;50.064;19.970;2023-02-28T02:36:03;3.47;;;3.17;;
21084;SDS011;34247;50.064;19.970;2023-02-28T02:37:38;5.30;;;3.55;;
21084;SDS011;34247;50.064;19.970;2023-02-28T02:38:56;5.70;;;3.80;;
21084;SDS011;34247;50.064;19.970;2023-02-28T02:42:15;4.35;;;3.47;;
21084;SDS011;34247;50.064;19.970;2023-02-28T02:43:50;7.00;;;2.95;;
21084;SDS011;34247;50.064;19.970;2023-02-28T02:45:03;6.85;;;3.42;;
21084;SDS011;34247;50.064;19.970;2023-02-28T02:47:30;6.50;;;3.97;;
21084;SDS011;34247;50.064;19.970;2023-02-28T02:48:36;4.55;;;3.60;;
21084;SDS011;34247;50.064;19.970;2023-02-28T02:49:46;7.75;;;5.18;;
21084;SDS011;34247;50.064;19.970;2023-02-28T02:50:58;5.35;;;3.40;;
21084;SDS011;34247;50.064;19.970;2023-02-28T02:52:15;6.57;;;4.22;;
21084;SDS011;34247;50.064;19.970;2023-02-28T02:53:30;4.25;;;3.67;;
21084;SDS011;34247;50.064;19.970;2023-02-28T02:54:41;14.50;;;4.63;;
21084;SDS011;34247;50.064;19.970;2023-02-28T02:55:51;6.28;;;3.50;;
21084;SDS011;34247;50.064;19.970;2023-02-28T02:56:58;4.97;;;3.65;;
21084;SDS011;34247;50.064;19.970;2023-02-28T02:58:13;7.07;;;4.28;;
21084;SDS011;34247;50.064;19.970;2023-02-28T02:59:21;4.68;;;4.22;;
21084;SDS011;34247;50.064;19.970;2023-02-28T03:00:30;6.18;;;3.83;;
21084;SDS011;34247;50.064;19.970;2023-02-28T03:01:41;4.10;;;3.72;;
21084;SDS011;34247;50.064;19.970;2023-02-28T03:02:46;6.50;;;4.45;;
21084;SDS011;34247;50.064;19.970;2023-02-28T03:03:57;5.65;;;4.63;;
21084;SDS011;34247;50.064;19.970;2023-02-28T03:05:12;5.22;;;4.28;;
21084;SDS011;34247;50.064;19.970;2023-02-28T03:06:28;8.13;;;3.85;;
21084;SDS011;34247;50.064;19.970;2023-02-28T03:07:32;4.78;;;3.40;;
21084;SDS011;34247;50.064;19.970;2023-02-28T03:08:36;8.10;;;4.00;;
21084;SDS011;34247;50.064;19.970;2023-02-28T03:09:49;9.95;;;5.15;;
21084;SDS011;34247;50.064;19.970;2023-02-28T03:10:56;4.45;;;2.97;;
21084;SDS011;34247;50.064;19.970;2023-02-28T03:12:09;7.65;;;3.58;;
21084;SDS011;34247;50.064;19.970;2023-02-28T03:17:59;5.68;;;4.22;;
21084;SDS011;34247;50.064;19.970;2023-02-28T03:26:44;4.47;;;4.18;;
21084;SDS011;34247;50.064;19.970;2023-02-28T03:28:04;8.73;;;4.68;;
21084;SDS011;34247;50.064;19.970;2023-02-28T03:29:30;14.70;;;4.90;;
21084;SDS011;34247;50.064;19.970;2023-02-28T03:32:39;4.45;;;3.83;;
21084;SDS011;34247;50.064;19.970;2023-02-28T03:34:03;7.93;;;4.32;;
21084;SDS011;34247;50.064;19.970;2023-02-28T03:35:44;7.53;;;4.63;;
21084;SDS011;34247;50.064;19.970;2023-02-28T03:36:56;6.38;;;3.95;;
21084;SDS011;34247;50.064;19.970;2023-02-28T03:38:18;8.98;;;4.60;;
21084;SDS011;34247;50.064;19.970;2023-02-28T03:40:01;8.05;;;4.90;;
21084;SDS011;34247;50.064;19.970;2023-02-28T03:41:16;4.28;;;3.80;;
21084;SDS011;34247;50.064;19.970;2023-02-28T03:42:27;10.93;;;4.57;;
21084;SDS011;34247;50.064;19.970;2023-02-28T03:43:38;4.88;;;4.47;;
21084;SDS011;34247;50.064;19.970;2023-02-28T03:44:49;9.23;;;4.95;;
21084;SDS011;34247;50.064;19.970;2023-02-28T03:46:15;5.15;;;3.55;;
21084;SDS011;34247;50.064;19.970;2023-02-28T03:47:32;7.45;;;4.75;;
21084;SDS011;34247;50.064;19.970;2023-02-28T03:48:53;9.38;;;4.20;;
21084;SDS011;34247;50.064;19.970;2023-02-28T03:50:39;5.97;;;3.72;;
21084;SDS011;34247;50.064;19.970;2023-02-28T03:51:47;7.30;;;4.00;;
21084;SDS011;34247;50.064;19.970;2023-02-28T03:54:31;10.07;;;5.97;;
21084;SDS011;34247;50.064;19.970;2023-02-28T03:55:50;12.18;;;5.18;;
21084;SDS011;34247;50.064;19.970;2023-02-28T03:57:15;4.82;;;3.88;;
21084;SDS011;34247;50.064;19.970;2023-02-28T04:00:18;7.65;;;3.97;;
21084;SDS011;34247;50.064;19.970;2023-02-28T04:01:52;5.75;;;4.53;;
21084;SDS011;34247;50.064;19.970;2023-02-28T04:02:56;6.70;;;5.93;;
21084;SDS011;34247;50.064;19.970;2023-02-28T04:04:01;13.07;;;4.57;;
21084;SDS011;34247;50.064;19.970;2023-02-28T04:05:10;10.55;;;4.63;;
21084;SDS011;34247;50.064;19.970;2023-02-28T04:06:18;8.75;;;3.75;;
21084;SDS011;34247;50.064;19.970;2023-02-28T04:07:24;6.55;;;3.70;;
21084;SDS011;34247;50.064;19.970;2023-02-28T04:08:32;9.27;;;4.65;;
21084;SDS011;34247;50.064;19.970;2023-02-28T04:09:37;4.63;;;3.85;;
21084;SDS011;34247;50.064;19.970;2023-02-28T04:10:41;10.55;;;4.15;;
21084;SDS011;34247;50.064;19.970;2023-02-28T04:11:50;4.82;;;4.43;;
21084;SDS011;34247;50.064;19.970;2023-02-28T04:12:56;10.63;;;4.68;;
21084;SDS011;34247;50.064;19.970;2023-02-28T04:13:59;7.45;;;4.80;;
21084;SDS011;34247;50.064;19.970;2023-02-28T04:15:09;4.78;;;3.83;;
21084;SDS011;34247;50.064;19.970;2023-02-28T04:16:14;7.13;;;4.07;;
21084;SDS011;34247;50.064;19.970;2023-02-28T04:17:36;8.90;;;4.85;;
21084;SDS011;34247;50.064;19.970;2023-02-28T04:18:40;15.63;;;4.20;;
21084;SDS011;34247;50.064;19.970;2023-02-28T04:19:48;7.30;;;4.18;;
21084;SDS011;34247;50.064;19.970;2023-02-28T04:20:52;2.97;;;2.78;;
21084;SDS011;34247;50.064;19.970;2023-02-28T04:21:56;6.47;;;3.90;;
21084;SDS011;34247;50.064;19.970;2023-02-28T04:23:00;6.35;;;4.72;;
21084;SDS011;34247;50.064;19.970;2023-02-28T04:24:04;10.30;;;5.60;;
21084;SDS011;34247;50.064;19.970;2023-02-28T04:25:18;7.25;;;4.53;;
21084;SDS011;34247;50.064;19.970;2023-02-28T04:26:22;7.93;;;3.90;;
21084;SDS011;34247;50.064;19.970;2023-02-28T04:27:26;5.57;;;4.47;;
21084;SDS011;34247;50.064;19.970;2023-02-28T04:28:30;7.50;;;4.97;;
21084;SDS011;34247;50.064;19.970;2023-02-28T04:29:34;6.85;;;4.78;;
21084;SDS011;34247;50.064;19.970;2023-02-28T04:30:39;7.38;;;4.13;;
21084;SDS011;34247;50.064;19.970;2023-02-28T04:31:42;8.60;;;4.90;;
21084;SDS011;34247;50.064;19.970;2023-02-28T04:32:46;6.72;;;4.45;;
21084;SDS011;34247;50.064;19.970;2023-02-28T04:33:50;10.85;;;4.40;;
21084;SDS011;34247;50.064;19.970;2023-02-28T04:34:54;6.18;;;3.45;;
21084;SDS011;34247;50.064;19.970;2023-02-28T04:35:59;9.98;;;5.35;;
21084;SDS011;34247;50.064;19.970;2023-02-28T04:37:05;6.80;;;4.47;;
21084;SDS011;34247;50.064;19.970;2023-02-28T04:38:15;7.00;;;4.63;;
21084;SDS011;34247;50.064;19.970;2023-02-28T04:39:20;4.47;;;3.80;;
21084;SDS011;34247;50.064;19.970;2023-02-28T04:40:27;8.55;;;4.43;;
21084;SDS011;34247;50.064;19.970;2023-02-28T04:41:31;8.57;;;4.15;;
21084;SDS011;34247;50.064;19.970;2023-02-28T04:42:36;3.90;;;3.60;;
21084;SDS011;34247;50.064;19.970;2023-02-28T04:43:41;7.60;;;4.70;;
21084;SDS011;34247;50.064;19.970;2023-02-28T04:44:45;5.63;;;5.10;;
21084;SDS011;34247;50.064;19.970;2023-02-28T04:45:50;8.45;;;5.07;;
21084;SDS011;34247;50.064;19.970;2023-02-28T04:46:54;8.90;;;4.75;;
21084;SDS011;34247;50.064;19.970;2023-02-28T04:47:58;5.88;;;3.90;;
21084;SDS011;34247;50.064;19.970;2023-02-28T04:49:02;4.93;;;4.18;;
21084;SDS011;34247;50.064;19.970;2023-02-28T04:50:11;5.88;;;4.40;;
21084;SDS011;34247;50.064;19.970;2023-02-28T04:51:16;8.43;;;5.25;;
21084;SDS011;34247;50.064;19.970;2023-02-28T04:52:22;6.00;;;3.88;;
21084;SDS011;34247;50.064;19.970;2023-02-28T04:53:26;5.60;;;3.92;;
21084;SDS011;34247;50.064;19.970;2023-02-28T04:54:32;9.93;;;5.80;;
21084;SDS011;34247;50.064;19.970;2023-02-28T04:55:36;15.27;;;5.15;;
21084;SDS011;34247;50.064;19.970;2023-02-28T04:56:43;5.32;;;3.80;;
21084;SDS011;34247;50.064;19.970;2023-02-28T04:57:46;7.72;;;4.03;;
21084;SDS011;34247;50.064;19.970;2023-02-28T04:58:51;5.95;;;5.43;;
21084;SDS011;34247;50.064;19.970;2023-02-28T04:59:56;4.68;;;3.55;;
21084;SDS011;34247;50.064;19.970;2023-02-28T05:01:03;3.95;;;3.60;;
21084;SDS011;34247;50.064;19.970;2023-02-28T05:02:24;5.53;;;5.03;;
21084;SDS011;34247;50.064;19.970;2023-02-28T05:03:27;7.75;;;4.32;;
21084;SDS011;34247;50.064;19.970;2023-02-28T05:04:31;4.63;;;3.97;;
21084;SDS011;34247;50.064;19.970;2023-02-28T05:05:38;11.75;;;4.10;;
21084;SDS011;34247;50.064;19.970;2023-02-28T05:06:42;10.77;;;5.30;;
21084;SDS011;34247;50.064;19.970;2023-02-28T05:07:46;15.18;;;6.70;;
21084;SDS011;34247;50.064;19.970;2023-02-28T05:08:50;7.53;;;4.30;;
21084;SDS011;34247;50.064;19.970;2023-02-28T05:09:55;6.68;;;4.45;;
21084;SDS011;34247;50.064;19.970;2023-02-28T05:11:00;4.65;;;3.50;;
21084;SDS011;34247;50.064;19.970;2023-02-28T05:12:04;11.27;;;4.90;;
21084;SDS011;34247;50.064;19.970;2023-02-28T05:13:12;8.18;;;4.43;;
21084;SDS011;34247;50.064;19.970;2023-02-28T05:14:21;14.68;;;4.60;;
21084;SDS011;34247;50.064;19.970;2023-02-28T05:15:25;7.80;;;4.38;;
21084;SDS011;34247;50.064;19.970;2023-02-28T05:16:29;6.68;;;4.05;;
21084;SDS011;34247;50.064;19.970;2023-02-28T05:17:33;8.75;;;5.05;;
21084;SDS011;34247;50.064;19.970;2023-02-28T05:18:37;5.35;;;4.85;;
21084;SDS011;34247;50.064;19.970;2023-02-28T05:19:41;9.65;;;5.05;;
21084;SDS011;34247;50.064;19.970;2023-02-28T05:20:45;9.07;;;4.57;;
21084;SDS011;34247;50.064;19.970;2023-02-28T05:21:51;5.95;;;3.53;;
21084;SDS011;34247;50.064;19.970;2023-02-28T05:23:02;4.72;;;4.22;;
21084;SDS011;34247;50.064;19.970;2023-02-28T05:24:10;7.68;;;4.00;;
21084;SDS011;34247;50.064;19.970;2023-02-28T05:25:17;7.05;;;4.50;;
21084;SDS011;34247;50.064;19.970;2023-02-28T05:26:24;7.18;;;4.25;;
21084;SDS011;34247;50.064;19.970;2023-02-28T05:27:29;4.93;;;4.43;;
21084;SDS011;34247;50.064;19.970;2023-02-28T05:28:33;6.35;;;5.40;;
21084;SDS011;34247;50.064;19.970;2023-02-28T05:29:37;5.97;;;4.83;;
21084;SDS011;34247;50.064;19.970;2023-02-28T05:30:44;9.68;;;4.38;;
21084;SDS011;34247;50.064;19.970;2023-02-28T05:31:49;7.68;;;4.28;;
21084;SDS011;34247;50.064;19.970;2023-02-28T05:32:53;3.60;;;3.30;;
21084;SDS011;34247;50.064;19.970;2023-02-28T05:33:57;15.53;;;5.30;;
21084;SDS011;34247;50.064;19.970;2023-02-28T05:35:02;9.23;;;5.75;;
21084;SDS011;34247;50.064;19.970;2023-02-28T05:36:13;6.22;;;4.32;;
21084;SDS011;34247;50.064;19.970;2023-02-28T05:37:17;8.87;;;4.30;;
21084;SDS011;34247;50.064;19.970;2023-02-28T05:38:21;4.97;;;4.57;;
21084;SDS011;34247;50.064;19.970;2023-02-28T05:39:25;7.47;;;5.82;;
21084;SDS011;34247;50.064;19.970;2023-02-28T05:40:29;6.05;;;4.90;;
21084;SDS011;34247;50.064;19.970;2023-02-28T05:41:33;9.23;;;4.55;;
21084;SDS011;34247;50.064;19.970;2023-02-28T05:42:37;11.95;;;4.63;;
21084;SDS011;34247;50.064;19.970;2023-02-28T05:43:41;6.40;;;5.28;;
21084;SDS011;34247;50.064;19.970;2023-02-28T05:44:46;7.70;;;4.95;;
21084;SDS011;34247;50.064;19.970;2023-02-28T05:45:49;6.10;;;5.50;;
21084;SDS011;34247;50.064;19.970;2023-02-28T05:46:55;6.47;;;5.50;;
21084;SDS011;34247;50.064;19.970;2023-02-28T05:47:59;6.88;;;4.72;;
21084;SDS011;34247;50.064;19.970;2023-02-28T05:49:02;8.20;;;5.32;;
21084;SDS011;34247;50.064;19.970;2023-02-28T05:50:11;5.40;;;4.40;;
21084;SDS011;34247;50.064;19.970;2023-02-28T05:51:15;6.90;;;4.50;;
21084;SDS011;34247;50.064;19.970;2023-02-28T05:52:19;6.45;;;4.78;;
21084;SDS011;34247;50.064;19.970;2023-02-28T05:53:23;8.00;;;4.93;;
21084;SDS011;34247;50.064;19.970;2023-02-28T05:54:27;9.30;;;5.73;;
21084;SDS011;34247;50.064;19.970;2023-02-28T05:55:31;7.47;;;5.07;;
21084;SDS011;34247;50.064;19.970;2023-02-28T05:56:35;6.57;;;4.05;;
21084;SDS011;34247;50.064;19.970;2023-02-28T05:57:43;5.25;;;4.75;;
21084;SDS011;34247;50.064;19.970;2023-02-28T05:58:47;9.80;;;5.93;;
21084;SDS011;34247;50.064;19.970;2023-02-28T05:59:51;7.05;;;4.53;;
21084;SDS011;34247;50.064;19.970;2023-02-28T06:00:56;6.63;;;4.30;;
21084;SDS011;34247;50.064;19.970;2023-02-28T06:02:01;10.27;;;4.95;;
21084;SDS011;34247;50.064;19.970;2023-02-28T06:03:10;5.15;;;4.43;;
21084;SDS011;34247;50.064;19.970;2023-02-28T06:04:15;10.38;;;5.25;;
21084;SDS011;34247;50.064;19.970;2023-02-28T06:05:33;4.20;;;3.80;;
21084;SDS011;34247;50.064;19.970;2023-02-28T06:06:37;5.20;;;3.77;;
21084;SDS011;34247;50.064;19.970;2023-02-28T06:07:42;10.50;;;5.22;;
21084;SDS011;34247;50.064;19.970;2023-02-28T06:08:46;9.27;;;5.45;;
21084;SDS011;34247;50.064;19.970;2023-02-28T06:09:50;16.65;;;4.90;;
21084;SDS011;34247;50.064;19.970;2023-02-28T06:10:54;5.93;;;4.75;;
21084;SDS011;34247;50.064;19.970;2023-02-28T06:11:59;5.60;;;5.05;;
21084;SDS011;34247;50.064;19.970;2023-02-28T06:13:11;5.25;;;4.70;;
21084;SDS011;34247;50.064;19.970;2023-02-28T06:14:16;9.77;;;4.93;;
21084;SDS011;34247;50.064;19.970;2023-02-28T06:15:22;4.20;;;3.80;;
21084;SDS011;34247;50.064;19.970;2023-02-28T06:16:26;15.40;;;6.35;;
21084;SDS011;34247;50.064;19.970;2023-02-28T06:17:32;8.27;;;4.78;;
21084;SDS011;34247;50.064;19.970;2023-02-28T06:18:37;7.45;;;4.75;;
21084;SDS011;34247;50.064;19.970;2023-02-28T06:19:42;6.30;;;4.03;;
21084;SDS011;34247;50.064;19.970;2023-02-28T06:20:53;12.85;;;6.15;;
21084;SDS011;34247;50.064;19.970;2023-02-28T06:21:58;30.33;;;5.43;;
21084;SDS011;34247;50.064;19.970;2023-02-28T06:23:10;4.90;;;4.38;;
21084;SDS011;34247;50.064;19.970;2023-02-28T06:24:14;6.78;;;4.63;;
21084;SDS011;34247;50.064;19.970;2023-02-28T06:25:18;12.32;;;5.78;;
21084;SDS011;34247;50.064;19.970;2023-02-28T06:26:22;5.82;;;4.97;;
21084;SDS011;34247;50.064;19.970;2023-02-28T06:27:26;8.75;;;5.82;;
21084;SDS011;34247;50.064;19.970;2023-02-28T06:28:30;5.47;;;5.07;;
21084;SDS011;34247;50.064;19.970;2023-02-28T06:29:34;9.85;;;6.70;;
21084;SDS011;34247;50.064;19.970;2023-02-28T06:30:39;7.10;;;5.60;;
21084;SDS011;34247;50.064;19.970;2023-02-28T06:31:43;10.13;;;5.55;;
21084;SDS011;34247;50.064;19.970;2023-02-28T06:32:47;10.82;;;6.30;;
21084;SDS011;34247;50.064;19.970;2023-02-28T06:33:52;6.30;;;4.13;;
21084;SDS011;34247;50.064;19.970;2023-02-28T06:34:59;6.30;;;5.53;;
21084;SDS011;34247;50.064;19.970;2023-02-28T06:36:03;8.98;;;4.97;;
21084;SDS011;34247;50.064;19.970;2023-02-28T06:37:17;5.57;;;4.30;;
21084;SDS011;34247;50.064;19.970;2023-02-28T06:38:26;11.38;;;6.97;;
21084;SDS011;34247;50.064;19.970;2023-02-28T06:39:38;7.57;;;4.97;;
21084;SDS011;34247;50.064;19.970;2023-02-28T06:40:56;9.65;;;5.95;;
21084;SDS011;34247;50.064;19.970;2023-02-28T06:42:11;5.47;;;4.72;;
21084;SDS011;34247;50.064;19.970;2023-02-28T06:43:16;8.02;;;5.00;;
21084;SDS011;34247;50.064;19.970;2023-02-28T06:44:20;7.40;;;4.68;;
21084;SDS011;34247;50.064;19.970;2023-02-28T06:45:25;12.18;;;5.93;;
21084;SDS011;34247;50.064;19.970;2023-02-28T06:46:36;8.63;;;6.43;;
21084;SDS011;34247;50.064;19.970;2023-02-28T06:47:45;13.52;;;4.85;;
21084;SDS011;34247;50.064;19.970;2023-02-28T06:48:55;9.70;;;6.10;;
21084;SDS011;34247;50.064;19.970;2023-02-28T06:49:59;12.82;;;5.78;;
21084;SDS011;34247;50.064;19.970;2023-02-28T06:51:08;5.10;;;4.45;;
21084;SDS011;34247;50.064;19.970;2023-02-28T06:52:16;6.47;;;5.43;;
21084;SDS011;34247;50.064;19.970;2023-02-28T06:53:20;6.22;;;4.72;;
21084;SDS011;34247;50.064;19.970;2023-02-28T06:54:23;10.57;;;4.93;;
21084;SDS011;34247;50.064;19.970;2023-02-28T06:55:27;6.25;;;4.70;;
21084;SDS011;34247;50.064;19.970;2023-02-28T06:56:32;10.20;;;5.72;;
21084;SDS011;34247;50.064;19.970;2023-02-28T06:57:39;10.18;;;5.82;;
21084;SDS011;34247;50.064;19.970;2023-02-28T06:58:46;11.02;;;4.75;;
21084;SDS011;34247;50.064;19.970;2023-02-28T06:59:52;6.72;;;5.55;;
21084;SDS011;34247;50.064;19.970;2023-02-28T07:00:56;11.57;;;6.32;;
21084;SDS011;34247;50.064;19.970;2023-02-28T07:02:00;8.10;;;5.03;;
21084;SDS011;34247;50.064;19.970;2023-02-28T07:03:18;6.63;;;5.28;;
21084;SDS011;34247;50.064;19.970;2023-02-28T07:04:22;7.05;;;5.53;;
21084;SDS011;34247;50.064;19.970;2023-02-28T07:05:26;15.90;;;5.85;;
21084;SDS011;34247;50.064;19.970;2023-02-28T07:06:30;9.40;;;6.00;;
21084;SDS011;34247;50.064;19.970;2023-02-28T07:07:41;9.63;;;6.32;;
21084;SDS011;34247;50.064;19.970;2023-02-28T07:08:53;11.40;;;5.45;;
21084;SDS011;34247;50.064;19.970;2023-02-28T07:10:00;9.50;;;6.63;;
21084;SDS011;34247;50.064;19.970;2023-02-28T07:11:04;8.77;;;6.25;;
21084;SDS011;34247;50.064;19.970;2023-02-28T07:12:11;5.65;;;4.70;;
21084;SDS011;34247;50.064;19.970;2023-02-28T07:13:18;7.78;;;5.50;;
21084;SDS011;34247;50.064;19.970;2023-02-28T07:14:22;10.18;;;5.95;;
21084;SDS011;34247;50.064;19.970;2023-02-28T07:15:26;11.93;;;7.45;;
21084;SDS011;34247;50.064;19.970;2023-02-28T07:16:30;22.55;;;6.93;;
21084;SDS011;34247;50.064;19.970;2023-02-28T07:17:34;9.65;;;5.32;;
21084;SDS011;34247;50.064;19.970;2023-02-28T07:18:38;12.77;;;5.80;;
21084;SDS011;34247;50.064;19.970;2023-02-28T07:19:42;12.23;;;5.25;;
21084;SDS011;34247;50.064;19.970;2023-02-28T07:20:46;7.70;;;5.82;;
21084;SDS011;34247;50.064;19.970;2023-02-28T07:21:49;9.60;;;6.13;;
21084;SDS011;34247;50.064;19.970;2023-02-28T07:22:53;5.90;;;4.60;;
21084;SDS011;34247;50.064;19.970;2023-02-28T07:24:00;9.88;;;5.45;;